createdAt,value
2023-12-11T00:01:09.124Z,75.70
2023-12-11T00:03:36.271Z,75.80
2023-12-11T00:06:03.807Z,76.00
2023-12-11T00:08:30.771Z,75.90
2023-12-11T00:10:57.643Z,75.90
2023-12-11T00:13:24.864Z,75.70
2023-12-11T00:15:51.859Z,75.40
2023-12-11T00:18:18.834Z,75.50
2023-12-11T00:20:45.864Z,75.30
2023-12-11T00:23:12.893Z,75.00
2023-12-11T00:25:46.414Z,75.00
2023-12-11T00:28:13.341Z,75.10
2023-12-11T00:30:40.440Z,74.80
2023-12-11T00:33:07.707Z,74.70
2023-12-11T00:35:34.809Z,74.50
2023-12-11T00:38:01.937Z,75.00
2023-12-11T00:40:28.794Z,74.90
2023-12-11T00:42:55.720Z,75.20
2023-12-11T00:45:22.670Z,75.30
2023-12-11T00:47:49.548Z,75.60
2023-12-11T00:50:16.402Z,75.50
2023-12-11T00:52:43.289Z,75.20
2023-12-11T00:55:10.222Z,75.20
2023-12-11T00:57:37.269Z,75.10
2023-12-11T01:00:04.582Z,74.90
2023-12-11T01:02:31.408Z,74.70
2023-12-11T01:04:59.013Z,75.00
2023-12-11T01:07:25.929Z,74.90
2023-12-11T01:09:52.821Z,75.10
2023-12-11T01:12:20.344Z,74.90
2023-12-11T01:14:47.166Z,74.90
2023-12-11T01:17:37.026Z,74.50
2023-12-11T01:20:01.125Z,74.40
2023-12-11T01:22:28.284Z,74.20
2023-12-11T01:24:55.162Z,74.20
2023-12-11T01:27:22.030Z,74.40
2023-12-11T01:29:48.847Z,74.50
2023-12-11T01:32:15.704Z,74.40
2023-12-11T01:34:42.773Z,74.40
2023-12-11T01:37:09.767Z,74.40
2023-12-11T01:39:36.717Z,74.30
2023-12-11T01:42:03.799Z,74.30
2023-12-11T01:44:31.635Z,74.10
2023-12-11T01:46:58.662Z,74.20
2023-12-11T01:49:25.882Z,74.20
2023-12-11T01:51:53.241Z,74.20
2023-12-11T01:54:20.972Z,74.10
2023-12-11T01:56:48.050Z,73.90
2023-12-11T01:59:15.306Z,74.00
2023-12-11T02:01:43.187Z,74.30
2023-12-11T02:04:10.370Z,74.40
2023-12-11T02:06:37.448Z,74.50
2023-12-11T02:09:05.021Z,74.70
2023-12-11T02:11:32.106Z,74.90
2023-12-11T02:13:59.055Z,74.90
2023-12-11T02:16:25.893Z,75.10
2023-12-11T02:18:53.056Z,75.00
2023-12-11T02:21:20.125Z,75.00
2023-12-11T02:24:02.027Z,74.80
2023-12-11T02:26:28.987Z,74.90
2023-12-11T02:28:55.900Z,75.00
2023-12-11T02:31:23.095Z,75.40
2023-12-11T02:33:50.232Z,75.90
2023-12-11T02:36:17.158Z,76.60
2023-12-11T02:38:44.163Z,77.00
2023-12-11T02:41:11.029Z,77.60
2023-12-11T02:43:38.017Z,77.80
2023-12-11T02:46:05.246Z,78.00
2023-12-11T02:48:32.653Z,78.10
2023-12-11T02:50:59.918Z,78.10
2023-12-11T02:53:26.828Z,78.40
2023-12-11T02:55:53.652Z,79.40
2023-12-11T02:58:20.722Z,78.90
2023-12-11T03:00:47.806Z,79.10
2023-12-11T03:03:14.843Z,78.90
2023-12-11T03:05:42.145Z,78.90
2023-12-11T03:08:09.043Z,79.00
2023-12-11T03:10:36.326Z,79.50
2023-12-11T03:13:03.243Z,79.40
2023-12-11T03:15:31.853Z,79.30
2023-12-11T03:17:59.308Z,79.40
2023-12-11T03:20:26.406Z,79.20
2023-12-11T03:22:53.308Z,79.00
2023-12-11T03:25:20.272Z,80.00
2023-12-11T03:27:47.125Z,79.60
2023-12-11T03:30:14.098Z,79.60
2023-12-11T03:32:40.932Z,79.90
2023-12-11T03:35:08.191Z,80.10
2023-12-11T03:37:35.037Z,79.70
2023-12-11T03:40:01.957Z,79.30
2023-12-11T03:42:28.908Z,79.30
2023-12-11T03:44:56.246Z,79.20
2023-12-11T03:47:23.131Z,79.40
2023-12-11T03:49:50.093Z,79.40
2023-12-11T03:52:16.947Z,79.60
2023-12-11T03:54:43.836Z,79.70
2023-12-11T03:57:10.708Z,79.50
2023-12-11T03:59:37.528Z,80.20
2023-12-11T04:02:04.692Z,79.20
2023-12-11T04:04:31.807Z,79.20
2023-12-11T04:06:58.763Z,79.60
2023-12-11T04:09:25.632Z,79.20
2023-12-11T04:11:52.537Z,79.00
2023-12-11T04:14:19.450Z,79.10
2023-12-11T04:16:46.297Z,79.00
2023-12-11T04:19:13.525Z,78.90
2023-12-11T04:21:40.701Z,78.80
2023-12-11T04:24:07.740Z,78.70
2023-12-11T04:26:34.699Z,78.90
2023-12-11T04:29:01.754Z,79.00
2023-12-11T04:31:28.683Z,78.70
2023-12-11T04:33:55.708Z,78.90
2023-12-11T04:36:23.248Z,79.00
2023-12-11T04:38:50.241Z,78.90
2023-12-11T04:41:17.152Z,79.10
2023-12-11T04:43:44.461Z,79.00
2023-12-11T04:46:11.634Z,79.30
2023-12-11T04:48:38.774Z,79.00
2023-12-11T04:51:06.321Z,78.90
2023-12-11T04:53:33.163Z,78.70
2023-12-11T04:56:00.190Z,78.80
2023-12-11T04:58:27.813Z,78.60
2023-12-11T05:00:54.782Z,78.90
2023-12-11T05:03:21.687Z,79.00
2023-12-11T05:05:48.573Z,78.80
2023-12-11T05:08:15.406Z,78.50
2023-12-11T05:10:42.286Z,79.50
2023-12-11T05:13:09.220Z,79.30
2023-12-11T05:15:36.171Z,79.00
2023-12-11T05:18:03.185Z,78.90
2023-12-11T05:20:30.010Z,78.40
2023-12-11T05:22:56.850Z,78.70
2023-12-11T05:25:24.214Z,79.00
2023-12-11T05:27:51.104Z,79.10
2023-12-11T05:30:20.020Z,78.80
2023-12-11T05:32:48.172Z,78.80
2023-12-11T05:35:15.166Z,78.90
2023-12-11T05:37:41.999Z,78.80
2023-12-11T05:40:21.817Z,78.30
2023-12-11T05:42:51.740Z,78.20
2023-12-11T05:45:18.815Z,78.40
2023-12-11T05:47:45.716Z,78.30
2023-12-11T05:50:13.267Z,78.20
2023-12-11T05:52:40.116Z,78.30
2023-12-11T05:55:07.308Z,78.30
2023-12-11T05:57:34.269Z,78.30
2023-12-11T06:00:01.146Z,78.30
2023-12-11T06:02:28.512Z,78.30
2023-12-11T06:04:55.465Z,78.50
2023-12-11T06:07:22.377Z,78.40
2023-12-11T06:09:49.652Z,78.40
2023-12-11T06:12:17.202Z,78.30
2023-12-11T06:14:47.158Z,78.30
2023-12-11T06:17:16.154Z,78.10
2023-12-11T06:19:43.828Z,78.30
2023-12-11T06:22:10.889Z,78.30
2023-12-11T06:24:41.742Z,78.10
2023-12-11T06:27:09.370Z,77.90
2023-12-11T06:29:37.347Z,78.30
2023-12-11T06:32:04.551Z,78.00
2023-12-11T06:34:31.839Z,77.80
2023-12-11T06:36:59.149Z,77.80
2023-12-11T06:39:28.015Z,78.00
2023-12-11T06:41:55.032Z,78.00
2023-12-11T06:44:22.391Z,78.50
2023-12-11T06:46:49.345Z,78.40
2023-12-11T06:49:16.317Z,78.00
2023-12-11T06:51:43.232Z,78.10
2023-12-11T06:54:11.988Z,78.00
2023-12-11T06:56:38.973Z,78.00
2023-12-11T06:59:05.822Z,78.30
2023-12-11T07:01:35.273Z,78.30
2023-12-11T07:04:03.194Z,78.20
2023-12-11T07:06:30.241Z,78.50
2023-12-11T07:08:57.610Z,78.50
2023-12-11T07:11:25.841Z,78.20
2023-12-11T07:13:54.216Z,78.40
2023-12-11T07:16:21.453Z,78.20
2023-12-11T07:18:48.480Z,78.20
2023-12-11T07:21:15.469Z,78.00
2023-12-11T07:23:42.771Z,78.10
2023-12-11T07:26:10.933Z,78.10
2023-12-11T07:28:38.929Z,78.00
2023-12-11T07:31:07.009Z,77.90
2023-12-11T07:33:35.338Z,77.90
2023-12-11T07:36:02.985Z,77.70
2023-12-11T07:38:30.093Z,77.70
2023-12-11T07:40:57.681Z,77.80
2023-12-11T07:43:25.094Z,77.90
2023-12-11T07:45:53.179Z,77.80
2023-12-11T07:48:20.518Z,78.00
2023-12-11T07:50:47.758Z,77.90
2023-12-11T07:53:14.860Z,77.80
2023-12-11T07:55:41.762Z,77.90
2023-12-11T07:58:08.847Z,78.00
2023-12-11T08:00:35.852Z,78.00
2023-12-11T08:03:05.328Z,78.10
2023-12-11T08:05:32.697Z,77.90
2023-12-11T08:07:59.739Z,78.00
2023-12-11T08:10:26.800Z,78.00
2023-12-11T08:12:54.709Z,77.70
2023-12-11T08:15:21.774Z,77.70
2023-12-11T08:17:48.739Z,77.80
2023-12-11T08:20:19.632Z,77.80
2023-12-11T08:22:46.950Z,78.00
2023-12-11T08:25:14.993Z,77.60
2023-12-11T08:27:43.566Z,77.70
2023-12-11T08:30:11.913Z,77.70
2023-12-11T08:32:40.433Z,77.50
2023-12-11T08:35:08.894Z,77.70
2023-12-11T08:37:36.236Z,77.50
2023-12-11T08:40:05.456Z,77.50
2023-12-11T08:42:37.662Z,77.40
2023-12-11T08:45:08.123Z,77.00
2023-12-11T08:47:38.889Z,76.90
2023-12-11T08:50:08.086Z,76.60
2023-12-11T08:52:35.389Z,76.50
2023-12-11T08:55:02.369Z,76.40
2023-12-11T08:57:30.468Z,76.30
2023-12-11T08:59:58.650Z,76.00
2023-12-11T09:02:25.771Z,76.10
2023-12-11T09:04:52.897Z,75.20
2023-12-11T09:07:20.020Z,75.60
2023-12-11T09:09:47.123Z,75.30
2023-12-11T09:12:23.327Z,74.90
2023-12-11T09:14:58.109Z,74.70
2023-12-11T09:17:25.217Z,75.10
2023-12-11T09:19:55.651Z,74.90
2023-12-11T09:22:24.581Z,74.80
2023-12-11T09:24:52.309Z,74.80
2023-12-11T09:27:19.367Z,74.80
2023-12-11T09:29:49.808Z,74.30
2023-12-11T09:32:17.581Z,74.20
2023-12-11T09:34:44.777Z,74.20
2023-12-11T09:37:11.902Z,74.30
2023-12-11T09:39:40.582Z,74.20
2023-12-11T09:42:08.876Z,73.90
2023-12-11T09:44:37.374Z,74.20
2023-12-11T09:47:13.233Z,73.80
2023-12-11T09:49:40.305Z,73.50
2023-12-11T09:52:07.422Z,73.40
2023-12-11T09:54:34.402Z,73.60
2023-12-11T09:57:02.129Z,73.40
2023-12-11T09:59:30.935Z,73.40
2023-12-11T10:01:58.925Z,73.00
2023-12-11T10:04:26.186Z,73.20
2023-12-11T10:06:53.646Z,73.20
2023-12-11T10:09:36.492Z,72.80
2023-12-11T10:12:05.179Z,72.70
2023-12-11T10:14:32.469Z,73.00
2023-12-11T10:16:59.862Z,72.40
2023-12-11T10:19:34.114Z,72.60
2023-12-11T10:22:04.832Z,72.40
2023-12-11T10:24:31.985Z,72.70
2023-12-11T10:26:59.954Z,72.60
2023-12-11T10:29:31.558Z,72.70
2023-12-11T10:32:03.131Z,72.80
2023-12-11T10:34:44.419Z,72.60
2023-12-11T10:37:14.705Z,71.90
2023-12-11T10:39:55.209Z,71.60
2023-12-11T10:42:22.423Z,71.50
2023-12-11T10:44:54.000Z,71.10
2023-12-11T10:47:22.297Z,71.10
2023-12-11T10:49:50.499Z,70.70
2023-12-11T10:52:18.454Z,71.40
2023-12-11T10:54:46.659Z,71.10
2023-12-11T10:57:22.499Z,71.30
2023-12-11T10:59:51.865Z,71.60
2023-12-11T11:02:21.118Z,71.70
2023-12-11T11:04:48.450Z,72.00
2023-12-11T11:07:27.690Z,71.80
2023-12-11T11:10:11.385Z,71.20
2023-12-11T11:12:41.127Z,71.20
2023-12-11T11:15:11.049Z,71.00
2023-12-11T11:17:59.945Z,71.20
2023-12-11T11:21:19.025Z,71.40
2023-12-11T11:23:49.019Z,70.90
2023-12-11T11:26:36.433Z,69.20
2023-12-11T11:29:04.934Z,68.90
2023-12-11T11:31:51.705Z,67.70
2023-12-11T11:34:42.242Z,67.00
2023-12-11T11:37:19.161Z,67.40
2023-12-11T11:40:06.475Z,67.10
2023-12-11T11:42:35.610Z,67.60
2023-12-11T11:45:08.963Z,67.50
2023-12-11T11:47:36.363Z,67.00
2023-12-11T11:50:08.624Z,66.80
2023-12-11T11:52:40.364Z,67.00
2023-12-11T11:55:22.332Z,67.50
2023-12-11T11:57:49.273Z,67.00
2023-12-11T12:00:25.969Z,66.50
2023-12-11T12:03:06.276Z,65.70
2023-12-11T12:05:33.368Z,65.60
2023-12-11T12:08:01.772Z,65.20
2023-12-11T12:10:28.896Z,65.20
2023-12-11T12:13:00.302Z,65.60
2023-12-11T12:15:28.537Z,66.10
2023-12-11T12:18:06.951Z,65.90
2023-12-11T12:20:33.955Z,66.40
2023-12-11T12:23:06.695Z,66.30
2023-12-11T12:25:35.003Z,66.40
2023-12-11T12:28:14.571Z,66.30
2023-12-11T12:30:41.821Z,65.80
2023-12-11T12:33:11.205Z,65.70
2023-12-11T12:35:39.076Z,65.60
2023-12-11T12:38:08.535Z,65.30
2023-12-11T12:40:36.156Z,65.30
2023-12-11T12:43:13.860Z,64.70
2023-12-11T12:45:42.060Z,64.80
2023-12-11T12:48:10.045Z,65.00
2023-12-11T12:50:37.232Z,65.00
2023-12-11T12:53:14.898Z,65.50
2023-12-11T12:55:42.001Z,65.20
2023-12-11T12:58:09.746Z,65.60
2023-12-11T13:00:37.490Z,65.20
2023-12-11T13:03:08.456Z,65.00
2023-12-11T13:05:47.714Z,65.60
2023-12-11T13:08:15.915Z,65.80
2023-12-11T13:10:56.479Z,65.90
2023-12-11T13:13:28.270Z,65.80
2023-12-11T13:15:56.770Z,65.90
2023-12-11T13:18:23.923Z,65.80
2023-12-11T13:20:51.784Z,65.80
2023-12-11T13:23:22.104Z,65.80
2023-12-11T13:25:48.983Z,65.80
2023-12-11T13:28:15.878Z,65.50
2023-12-11T13:30:43.341Z,65.30
2023-12-11T13:33:10.609Z,65.10
2023-12-11T13:35:37.959Z,65.20
2023-12-11T13:38:04.912Z,65.40
2023-12-11T13:40:31.851Z,65.10
2023-12-11T13:42:58.790Z,64.20
2023-12-11T13:45:25.618Z,64.50
2023-12-11T13:47:52.663Z,64.80
2023-12-11T13:50:19.754Z,65.70
2023-12-11T13:52:46.836Z,65.00
2023-12-11T13:55:13.782Z,65.20
2023-12-11T13:57:41.015Z,65.40
2023-12-11T14:00:08.578Z,65.30
2023-12-11T14:02:59.643Z,65.10
2023-12-11T14:05:22.630Z,65.10
2023-12-11T14:07:50.224Z,65.20
2023-12-11T14:10:17.707Z,65.20
2023-12-11T14:12:44.735Z,65.20
2023-12-11T14:15:11.884Z,65.20
2023-12-11T14:17:39.479Z,65.20
2023-12-11T14:20:07.264Z,65.50
2023-12-11T14:22:35.600Z,65.40
2023-12-11T14:25:04.088Z,65.40
2023-12-11T14:27:34.429Z,65.40
2023-12-11T14:30:01.697Z,65.50
2023-12-11T14:32:28.633Z,65.60
2023-12-11T14:34:55.729Z,65.70
2023-12-11T14:37:22.762Z,65.80
2023-12-11T14:39:50.748Z,65.90
2023-12-11T14:42:20.395Z,65.90
2023-12-11T14:44:47.344Z,65.80
2023-12-11T14:47:14.149Z,65.70
2023-12-11T14:49:40.987Z,66.00
2023-12-11T14:52:08.060Z,66.10
2023-12-11T14:54:35.011Z,66.20
2023-12-11T14:57:01.963Z,66.20
2023-12-11T14:59:28.948Z,66.30
2023-12-11T15:01:55.837Z,66.30
2023-12-11T15:04:22.839Z,67.10
2023-12-11T15:06:50.158Z,66.50
2023-12-11T15:09:17.360Z,66.50
2023-12-11T15:11:44.362Z,66.40
2023-12-11T15:14:13.554Z,66.40
2023-12-11T15:16:42.294Z,66.30
2023-12-11T15:19:09.935Z,67.00
2023-12-11T15:21:37.075Z,66.30
2023-12-11T15:24:04.359Z,66.20
2023-12-11T15:26:31.386Z,66.20
2023-12-11T15:29:03.084Z,66.20
2023-12-11T15:31:30.357Z,66.20
2023-12-11T15:33:57.554Z,66.20
2023-12-11T15:36:24.475Z,66.10
2023-12-11T15:38:52.764Z,66.20
2023-12-11T15:41:19.681Z,66.20
2023-12-11T15:43:46.959Z,66.00
2023-12-11T15:46:14.321Z,65.80
2023-12-11T15:48:45.313Z,65.90
2023-12-11T15:51:16.656Z,65.90
2023-12-11T15:53:45.361Z,65.90
2023-12-11T15:56:14.089Z,65.90
2023-12-11T15:58:41.360Z,65.90
2023-12-11T16:01:10.195Z,66.00
2023-12-11T16:03:38.613Z,66.20
2023-12-11T16:06:05.899Z,66.30
2023-12-11T16:08:32.978Z,66.30
2023-12-11T16:10:59.868Z,67.10
2023-12-11T16:13:26.744Z,67.90
2023-12-11T16:15:56.381Z,68.20
2023-12-11T16:18:23.950Z,67.50
2023-12-11T16:20:50.945Z,67.10
2023-12-11T16:23:17.838Z,67.10
2023-12-11T16:25:51.448Z,66.90
2023-12-11T16:28:26.727Z,66.70
2023-12-11T16:30:54.274Z,66.70
2023-12-11T16:33:21.376Z,66.80
2023-12-11T16:35:48.283Z,66.90
2023-12-11T16:38:15.255Z,66.90
2023-12-11T16:40:42.237Z,66.90
2023-12-11T16:43:09.922Z,67.10
2023-12-11T16:45:37.395Z,67.20
2023-12-11T16:48:04.659Z,67.20
2023-12-11T16:50:31.894Z,67.20
2023-12-11T16:52:58.814Z,67.20
2023-12-11T16:55:25.804Z,67.30
2023-12-11T16:57:52.707Z,67.50
2023-12-11T17:00:19.881Z,67.40
2023-12-11T17:02:47.078Z,67.60
2023-12-11T17:05:14.366Z,68.20
2023-12-11T17:07:41.326Z,67.70
2023-12-11T17:10:08.932Z,67.80
2023-12-11T17:12:36.411Z,68.10
2023-12-11T17:15:03.981Z,68.30
2023-12-11T17:17:31.207Z,68.50
2023-12-11T17:19:58.835Z,68.70
2023-12-11T17:22:26.663Z,68.90
2023-12-11T17:24:53.997Z,69.10
2023-12-11T17:27:21.101Z,69.20
2023-12-11T17:29:48.069Z,69.20
2023-12-11T17:32:14.991Z,69.30
2023-12-11T17:34:42.925Z,69.30
2023-12-11T17:37:10.130Z,69.40
2023-12-11T17:39:37.116Z,69.70
2023-12-11T17:42:04.380Z,69.70
2023-12-11T17:44:31.265Z,69.60
2023-12-11T17:46:58.137Z,69.60
2023-12-11T17:49:25.016Z,69.50
2023-12-11T17:51:53.183Z,69.40
2023-12-11T17:54:20.402Z,69.40
2023-12-11T17:56:47.427Z,69.30
2023-12-11T17:59:14.896Z,69.30
2023-12-11T18:01:41.902Z,69.20
2023-12-11T18:04:08.980Z,69.00
2023-12-11T18:06:35.977Z,69.30
2023-12-11T18:09:04.048Z,69.20
2023-12-11T18:11:30.970Z,69.20
2023-12-11T18:13:57.823Z,69.30
2023-12-11T18:16:25.881Z,69.50
2023-12-11T18:18:52.980Z,69.70
2023-12-11T18:21:19.894Z,69.90
2023-12-11T18:23:46.782Z,69.90
2023-12-11T18:26:13.764Z,70.00
2023-12-11T18:28:41.023Z,70.20
2023-12-11T18:31:08.068Z,70.20
2023-12-11T18:33:35.118Z,70.10
2023-12-11T18:36:02.244Z,70.30
2023-12-11T18:38:29.123Z,70.20
2023-12-11T18:40:56.017Z,70.20
2023-12-11T18:43:23.784Z,70.30
2023-12-11T18:45:50.778Z,70.60
2023-12-11T18:48:18.259Z,70.70
2023-12-11T18:50:45.194Z,70.90
2023-12-11T18:53:12.048Z,70.80
2023-12-11T18:55:39.536Z,70.70
2023-12-11T18:58:06.476Z,70.60
2023-12-11T19:00:34.325Z,70.50
2023-12-11T19:03:01.294Z,70.60
2023-12-11T19:05:28.426Z,70.50
2023-12-11T19:07:57.509Z,70.30
2023-12-11T19:10:24.446Z,70.20
2023-12-11T19:12:53.356Z,70.20
2023-12-11T19:15:22.486Z,70.00
2023-12-11T19:17:49.721Z,70.00
2023-12-11T19:20:16.734Z,70.00
2023-12-11T19:22:43.955Z,69.80
2023-12-11T19:25:11.597Z,69.80
2023-12-11T19:27:42.521Z,69.70
2023-12-11T19:30:13.376Z,69.60
2023-12-11T19:32:40.193Z,69.60
2023-12-11T19:35:10.248Z,69.70
2023-12-11T19:37:37.284Z,69.70
2023-12-11T19:40:05.033Z,69.60
2023-12-11T19:42:31.971Z,69.60
2023-12-11T19:44:58.889Z,69.70
2023-12-11T19:47:25.926Z,69.80
2023-12-11T19:49:54.191Z,69.70
2023-12-11T19:52:21.339Z,69.80
2023-12-11T19:54:48.266Z,69.70
2023-12-11T19:57:15.312Z,69.60
2023-12-11T19:59:44.815Z,69.60
2023-12-11T20:02:12.176Z,69.40
2023-12-11T20:04:43.394Z,69.50
2023-12-11T20:07:10.505Z,69.40
2023-12-11T20:09:37.593Z,69.20
2023-12-11T20:12:11.234Z,69.10
2023-12-11T20:14:41.247Z,69.20
2023-12-11T20:17:08.170Z,69.60
2023-12-11T20:19:35.407Z,70.20
2023-12-11T20:22:02.561Z,70.30
2023-12-11T20:24:29.672Z,70.70
2023-12-11T20:26:56.756Z,71.00
2023-12-11T20:29:23.648Z,71.30
2023-12-11T20:31:53.112Z,71.20
2023-12-11T20:34:20.361Z,71.50
2023-12-11T20:36:48.918Z,71.60
2023-12-11T20:39:15.823Z,71.90
2023-12-11T20:41:42.877Z,72.10
2023-12-11T20:44:09.754Z,72.10
2023-12-11T20:46:36.813Z,72.10
2023-12-11T20:49:03.882Z,72.00
2023-12-11T20:51:30.768Z,71.90
2023-12-11T20:53:57.618Z,71.80
2023-12-11T20:56:26.521Z,71.50
2023-12-11T20:58:54.959Z,71.50
2023-12-11T21:01:38.458Z,71.60
2023-12-11T21:04:07.020Z,71.60
2023-12-11T21:06:35.112Z,71.70
2023-12-11T21:09:08.971Z,72.30
2023-12-11T21:11:36.654Z,71.60
2023-12-11T21:14:03.798Z,71.70
2023-12-11T21:16:30.955Z,71.70
2023-12-11T21:18:58.081Z,71.70
2023-12-11T21:21:25.616Z,71.70
2023-12-11T21:23:52.588Z,71.70
2023-12-11T21:26:20.811Z,71.70
2023-12-11T21:28:48.895Z,71.80
2023-12-11T21:31:29.912Z,71.70
2023-12-11T21:33:57.673Z,71.70
2023-12-11T21:36:28.674Z,73.00
2023-12-11T21:38:55.704Z,73.80
2023-12-11T21:41:22.736Z,74.00
2023-12-11T21:43:52.447Z,74.30
2023-12-11T21:46:20.220Z,75.40
2023-12-11T21:48:49.096Z,76.30
2023-12-11T21:51:17.960Z,75.90
2023-12-11T21:53:45.575Z,75.30
2023-12-11T21:56:12.554Z,74.90
2023-12-11T21:58:40.687Z,75.00
2023-12-11T22:01:07.955Z,75.00
2023-12-11T22:03:34.954Z,74.90
2023-12-11T22:06:03.552Z,74.90
2023-12-11T22:08:30.529Z,74.80
2023-12-11T22:10:57.337Z,74.70
2023-12-11T22:13:24.314Z,74.80
2023-12-11T22:15:51.222Z,74.90
2023-12-11T22:18:18.174Z,74.90
2023-12-11T22:20:45.269Z,74.80
2023-12-11T22:23:12.709Z,75.00
2023-12-11T22:25:39.574Z,74.90
2023-12-11T22:28:06.525Z,75.10
2023-12-11T22:30:33.383Z,75.00
2023-12-11T22:33:00.365Z,74.90
2023-12-11T22:35:27.773Z,74.90
2023-12-11T22:37:54.760Z,75.00
2023-12-11T22:40:21.738Z,74.80
2023-12-11T22:42:49.157Z,74.90
2023-12-11T22:45:17.718Z,75.00
2023-12-11T22:47:45.095Z,74.90
2023-12-11T22:50:12.143Z,74.90
2023-12-11T22:52:39.149Z,74.90
2023-12-11T22:55:06.657Z,75.00
2023-12-11T22:57:34.015Z,75.10
2023-12-11T23:00:00.982Z,75.10
2023-12-11T23:02:27.922Z,75.00
2023-12-11T23:04:56.656Z,75.00
2023-12-11T23:07:23.950Z,74.70
2023-12-11T23:09:50.918Z,74.90
2023-12-11T23:12:18.471Z,75.00
2023-12-11T23:14:45.659Z,74.90
2023-12-11T23:17:12.652Z,75.00
2023-12-11T23:19:39.749Z,75.00
2023-12-11T23:22:06.801Z,75.00
2023-12-11T23:24:33.790Z,75.00
2023-12-11T23:27:00.988Z,75.00
2023-12-11T23:29:29.069Z,75.00
2023-12-11T23:31:55.971Z,75.00
2023-12-11T23:34:22.843Z,74.90
2023-12-11T23:36:49.822Z,74.80
2023-12-11T23:39:16.713Z,74.90
2023-12-11T23:41:44.646Z,74.70
2023-12-11T23:44:11.752Z,75.00
2023-12-11T23:46:38.976Z,75.00
2023-12-11T23:49:06.057Z,74.90
2023-12-11T23:51:33.066Z,74.80
2023-12-11T23:54:00.615Z,74.80
2023-12-11T23:56:27.437Z,74.90
2023-12-11T23:58:54.243Z,74.90
